Time;durP1;ratioP1;P1;durP2;ratioP2;P2;SDS_P1;SDS_P2;PMS_P1;PMS_P2;Temp;Humidity;BMP_temperature;BMP_pressure;BME280_temperature;BME280_humidity;BME280_pressure;Samples;Min_cycle;Max_cycle;Signal;HPM_P1;HPM_P2
2021/01/08 00:00:28;;;;;;;11.77;6.60;;;;;;;-0.07;83.51;98779.94;5112006;28;20514;-77
2021/01/08 00:02:55;;;;;;;11.73;5.43;;;;;;;-0.05;83.46;98782.47;5111707;28;20047;-77
2021/01/08 00:05:21;;;;;;;11.90;6.20;;;;;;;-0.05;82.82;98782.47;5111937;28;20126;-77
2021/01/08 00:07:47;;;;;;;11.57;6.47;;;;;;;-0.07;83.20;98779.09;5112079;28;20043;-77
2021/01/08 00:10:14;;;;;;;11.30;5.67;;;;;;;-0.11;83.58;98778.47;5112171;28;20121;-78
2021/01/08 00:12:41;;;;;;;12.03;5.87;;;;;;;-0.27;83.56;98751.31;5112208;28;20059;-77
2021/01/08 00:15:08;;;;;;;12.57;5.17;;;;;;;-0.07;83.32;98777.25;5111706;28;20093;-77
2021/01/08 00:17:35;;;;;;;14.10;5.83;;;;;;;-0.04;83.54;98782.34;5093899;28;20067;-77
2021/01/08 00:20:02;;;;;;;10.23;5.90;;;;;;;-0.14;83.84;98784.06;5112016;28;20397;-77
2021/01/08 00:22:28;;;;;;;10.20;5.70;;;;;;;-0.13;83.90;98783.13;5111546;28;20411;-77
2021/01/08 00:24:55;;;;;;;15.13;6.23;;;;;;;-0.14;83.92;98784.06;5110993;28;20400;-78
2021/01/08 00:27:23;;;;;;;12.30;6.63;;;;;;;-0.23;83.85;98777.66;5112364;28;20060;-77
2021/01/08 00:29:49;;;;;;;13.33;6.63;;;;;;;-0.09;84.14;98789.03;5111614;28;20050;-77
2021/01/08 00:32:16;;;;;;;11.77;6.53;;;;;;;-0.16;84.38;98787.88;5111496;28;20117;-77
2021/01/08 00:34:42;;;;;;;15.13;7.27;;;;;;;-0.16;84.50;98786.03;5110909;28;20044;-77
2021/01/08 00:37:09;;;;;;;14.87;6.70;;;;;;;-0.12;84.23;98786.63;5112097;28;20094;-78
2021/01/08 00:39:36;;;;;;;14.90;7.57;;;;;;;-0.21;84.38;98777.53;5113597;28;20047;-78
2021/01/08 00:42:03;;;;;;;12.73;6.03;;;;;;;-0.18;84.17;98785.31;5112978;28;20131;-77
2021/01/08 00:44:30;;;;;;;10.27;5.97;;;;;;;-0.27;84.75;98791.41;5112721;28;20044;-78
2021/01/08 00:46:56;;;;;;;8.67;5.10;;;;;;;-0.31;82.87;98779.28;5112874;28;20051;-78
2021/01/08 00:49:22;;;;;;;14.40;5.90;;;;;;;-0.24;82.93;98792.00;5113300;28;20044;-77
2021/01/08 00:51:49;;;;;;;11.70;5.87;;;;;;;-0.41;82.68;98763.16;5112001;28;20044;-77
2021/01/08 00:54:15;;;;;;;10.20;5.20;;;;;;;-0.21;82.47;98797.09;5110361;28;20051;-77
2021/01/08 00:56:42;;;;;;;14.60;6.03;;;;;;;-0.24;83.00;98788.47;5111963;28;20053;-77
2021/01/08 00:59:08;;;;;;;12.13;5.60;;;;;;;-0.27;83.12;98789.59;5111265;28;20069;-77
2021/01/08 01:01:35;;;;;;;11.77;6.07;;;;;;;-0.23;83.34;98785.66;5111610;28;20044;-77
2021/01/08 01:04:01;;;;;;;10.87;5.57;;;;;;;-0.26;82.89;98791.28;5111464;28;20039;-77
2021/01/08 01:06:30;;;;;;;11.97;4.83;;;;;;;-0.24;82.48;98791.16;5111192;28;20055;-77
2021/01/08 01:08:57;;;;;;;10.13;5.00;;;;;;;-0.24;82.64;98794.69;5095286;28;20399;-77
2021/01/08 01:11:25;;;;;;;8.90;4.27;;;;;;;-0.44;81.88;98764.22;5111055;28;20078;-77
2021/01/08 01:13:55;;;;;;;9.23;4.70;;;;;;;-0.29;81.60;98790.69;5111283;28;20471;-77
2021/01/08 01:16:21;;;;;;;14.55;6.22;;;;;;;-0.31;81.76;98795.31;5110793;28;20067;-77
2021/01/08 01:18:50;;;;;;;13.03;4.93;;;;;;;-0.32;82.07;98796.28;5111546;28;20051;-77
2021/01/08 01:21:17;;;;;;;7.32;4.38;;;;;;;-0.33;81.61;98794.56;5111103;28;20047;-78
2021/01/08 01:23:44;;;;;;;9.23;4.73;;;;;;;-0.41;80.97;98798.69;5111051;28;20047;-77
2021/01/08 01:26:10;;;;;;;7.93;3.93;;;;;;;-0.45;80.73;98799.94;5110545;28;20047;-77
2021/01/08 01:28:36;;;;;;;6.47;3.73;;;;;;;-0.52;80.68;98806.75;5110542;28;20479;-77
2021/01/08 01:31:03;;;;;;;13.00;4.90;;;;;;;-0.56;81.33;98806.16;5110715;28;20043;-77
2021/01/08 01:33:30;;;;;;;6.23;4.23;;;;;;;-0.57;80.68;98811.63;5111032;28;20253;-78
2021/01/08 01:35:58;;;;;;;14.13;4.97;;;;;;;-0.54;81.13;98806.88;5095693;28;20067;-77
2021/01/08 01:38:24;;;;;;;8.87;4.60;;;;;;;-0.59;80.94;98808.22;5114807;28;20051;-77
2021/01/08 01:40:51;;;;;;;6.70;4.50;;;;;;;-0.55;80.95;98807.84;5113954;28;20055;-77
2021/01/08 01:43:17;;;;;;;10.67;4.30;;;;;;;-0.60;79.80;98803.84;5115803;28;20101;-77
2021/01/08 01:45:44;;;;;;;13.57;4.77;;;;;;;-0.60;80.71;98807.38;5120199;28;20043;-77
2021/01/08 01:48:11;;;;;;;9.90;4.20;;;;;;;-0.63;80.31;98810.28;5116122;27;20480;-77
2021/01/08 01:50:37;;;;;;;9.27;4.60;;;;;;;-0.68;80.37;98803.59;5114268;28;20077;-77
2021/01/08 01:53:04;;;;;;;9.07;4.53;;;;;;;-0.68;80.91;98808.94;5113983;28;20047;-77
2021/01/08 01:55:31;;;;;;;11.67;5.07;;;;;;;-0.64;80.36;98813.06;5112718;28;20056;-77
2021/01/08 01:57:59;;;;;;;12.33;4.43;;;;;;;-0.67;80.18;98814.16;5114010;28;20403;-77
2021/01/08 02:00:27;;;;;;;9.60;5.00;;;;;;;-0.67;80.93;98816.84;5113817;28;20052;-78
2021/01/08 02:02:57;;;;;;;9.40;4.30;;;;;;;-0.71;80.96;98802.03;5113839;28;20061;-77
2021/01/08 02:05:24;;;;;;;10.30;4.30;;;;;;;-0.72;80.91;98806.53;5113709;28;20109;-77
2021/01/08 02:07:58;;;;;;;13.57;4.77;;;;;;;-0.64;80.34;98815.75;5113723;28;20051;-77
2021/01/08 02:10:28;;;;;;;12.80;5.03;;;;;;;-0.65;80.79;98811.38;5113177;28;20065;-77
2021/01/08 02:12:59;;;;;;;10.07;5.50;;;;;;;-0.63;80.56;98802.28;5114905;28;20047;-77
2021/01/08 02:15:26;;;;;;;10.67;5.27;;;;;;;-0.61;80.70;98811.00;5089444;28;20079;-77
2021/01/08 02:17:52;;;;;;;9.23;5.03;;;;;;;-0.66;80.94;98805.19;5112791;28;20430;-77
2021/01/08 02:20:22;;;;;;;9.63;5.00;;;;;;;-0.69;81.16;98799.22;5095525;28;20097;-77
2021/01/08 02:22:52;;;;;;;13.02;4.97;;;;;;;-0.70;81.04;98792.22;5113526;28;20044;-78
2021/01/08 02:25:24;;;;;;;11.73;4.77;;;;;;;-0.63;81.36;98809.41;5113577;28;20036;-77
2021/01/08 02:28:19;;;;;;;8.93;5.10;;;;;;;-0.60;81.83;98817.22;5113094;28;20044;-77
2021/01/08 02:30:46;;;;;;;9.57;4.87;;;;;;;-0.57;81.94;98811.63;5113934;28;20051;-78
2021/01/08 02:33:14;;;;;;;13.43;6.00;;;;;;;-0.57;81.97;98807.13;5113126;28;20495;-78
2021/01/08 02:35:41;;;;;;;11.70;5.10;;;;;;;-0.57;81.86;98799.09;5113023;28;20054;-77
2021/01/08 02:38:08;;;;;;;13.00;5.60;;;;;;;-0.65;81.68;98779.34;5113070;28;20051;-77
2021/01/08 02:40:36;;;;;;;16.30;5.57;;;;;;;-0.61;81.57;98803.00;5113397;28;20040;-77
2021/01/08 02:43:04;;;;;;;11.20;5.20;;;;;;;-0.66;82.47;98796.31;5113596;28;20105;-77
2021/01/08 02:45:31;;;;;;;14.93;6.27;;;;;;;-0.64;82.45;98797.06;5112448;28;20048;-77
2021/01/08 02:47:57;;;;;;;10.90;5.33;;;;;;;-0.72;82.58;98795.00;5112298;28;20275;-77
2021/01/08 02:50:24;;;;;;;13.03;6.03;;;;;;;-0.73;82.88;98787.97;5113552;27;20074;-77
2021/01/08 02:52:57;;;;;;;12.40;5.30;;;;;;;-0.66;83.25;98802.53;5113890;28;20601;-77
2021/01/08 02:55:30;;;;;;;13.77;6.43;;;;;;;-0.63;83.97;98796.94;5113063;28;20047;-77
2021/01/08 02:57:59;;;;;;;12.17;6.47;;;;;;;-0.58;83.98;98796.56;5109856;28;20043;-77
2021/01/08 03:00:28;;;;;;;12.05;6.13;;;;;;;-0.57;83.28;98800.94;5112887;28;20296;-77
2021/01/08 03:02:55;;;;;;;13.03;6.13;;;;;;;-0.54;84.33;98796.19;5112311;28;20116;-77
2021/01/08 03:05:22;;;;;;;12.67;6.23;;;;;;;-0.61;83.56;98786.97;5112470;28;20044;-78
2021/01/08 03:07:49;;;;;;;11.60;5.40;;;;;;;-0.51;84.17;98797.78;5112045;28;20044;-77
2021/01/08 03:10:17;;;;;;;12.17;5.67;;;;;;;-0.55;84.37;98785.63;5112564;28;20105;-77
2021/01/08 03:12:51;;;;;;;13.17;6.43;;;;;;;-0.51;84.08;98800.44;5112152;28;20073;-77
2021/01/08 03:15:19;;;;;;;13.00;6.57;;;;;;;-0.60;84.18;98787.84;5112245;28;20043;-78
2021/01/08 03:17:48;;;;;;;12.60;6.47;;;;;;;-0.52;85.03;98792.56;5111789;28;20044;-77
2021/01/08 03:20:15;;;;;;;11.07;5.77;;;;;;;-0.61;85.56;98780.78;5111975;28;20052;-77
2021/01/08 03:22:42;;;;;;;12.67;5.83;;;;;;;-0.65;85.06;98780.16;5112867;28;20059;-77
2021/01/08 03:25:09;;;;;;;9.97;5.33;;;;;;;-0.51;84.56;98776.41;5111891;28;20043;-78
2021/01/08 03:27:36;;;;;;;12.50;6.03;;;;;;;-0.51;85.19;98788.91;5112903;28;20070;-77
2021/01/08 03:30:05;;;;;;;14.77;6.30;;;;;;;-0.51;84.98;98781.75;5112679;28;20043;-78
2021/01/08 03:32:32;;;;;;;14.50;6.50;;;;;;;-0.49;84.88;98792.31;5112706;28;20077;-77
2021/01/08 03:34:58;;;;;;;10.80;5.17;;;;;;;-0.51;83.88;98794.25;5111736;28;20043;-77
2021/01/08 03:37:29;;;;;;;12.40;6.17;;;;;;;-0.51;85.04;98786.22;5112344;28;20124;-77
2021/01/08 03:39:55;;;;;;;11.87;5.50;;;;;;;-0.69;83.27;98757.38;5111137;28;20138;-77
2021/01/08 03:42:21;;;;;;;12.17;5.13;;;;;;;-0.49;83.46;98789.63;5111505;28;20047;-77
2021/01/08 03:44:48;;;;;;;10.97;4.77;;;;;;;-0.52;83.80;98776.53;5111361;28;20043;-77
2021/01/08 03:47:14;;;;;;;8.53;5.10;;;;;;;-0.53;83.92;98775.66;5111920;28;20047;-77
2021/01/08 03:49:41;;;;;;;9.40;5.30;;;;;;;-0.50;83.52;98777.25;5111194;28;20163;-78
2021/01/08 03:52:08;;;;;;;9.90;4.93;;;;;;;-0.40;84.41;98780.88;5111426;28;20039;-78
2021/01/08 03:54:35;;;;;;;9.17;5.10;;;;;;;-0.42;83.42;98777.47;5110907;28;20043;-78
2021/01/08 03:57:03;;;;;;;13.53;5.60;;;;;;;-0.44;83.31;98774.06;5108251;28;20506;-78
2021/01/08 03:59:29;;;;;;;12.07;4.87;;;;;;;-0.41;83.49;98771.16;5111316;28;20069;-77
2021/01/08 04:01:55;;;;;;;14.90;5.00;;;;;;;-0.46;83.31;98774.19;5109783;28;20048;-78
2021/01/08 04:04:22;;;;;;;11.53;4.67;;;;;;;-0.43;83.75;98773.94;5111046;28;20043;-78
2021/01/08 04:06:50;;;;;;;9.07;4.83;;;;;;;-0.50;83.80;98769.25;5111506;28;20090;-78
2021/01/08 04:09:17;;;;;;;9.00;4.63;;;;;;;-0.44;83.65;98769.56;5111347;28;20055;-77
2021/01/08 04:11:43;;;;;;;13.40;4.85;;;;;;;-0.50;83.18;98766.56;5111286;28;20056;-78
2021/01/08 04:14:09;;;;;;;10.97;5.00;;;;;;;-0.54;84.06;98771.31;5110726;28;20058;-77
2021/01/08 04:16:36;;;;;;;13.10;5.63;;;;;;;-0.49;83.99;98771.78;5111361;28;20055;-78
2021/01/08 04:19:03;;;;;;;11.80;5.13;;;;;;;-0.49;83.53;98768.28;5111123;28;20126;-77
2021/01/08 04:21:30;;;;;;;10.27;5.13;;;;;;;-0.50;83.44;98772.75;5111331;28;20051;-77
2021/01/08 04:23:57;;;;;;;8.87;4.83;;;;;;;-0.51;83.38;98772.88;5110873;28;20054;-77
2021/01/08 04:26:23;;;;;;;7.87;4.60;;;;;;;-0.62;84.28;98766.56;5111231;28;20050;-77
2021/01/08 04:28:50;;;;;;;8.50;4.60;;;;;;;-0.53;84.10;98762.31;5110846;28;20044;-77
2021/01/08 04:31:16;;;;;;;14.70;5.27;;;;;;;-0.50;84.40;98770.06;5111393;28;20442;-78
2021/01/08 04:33:43;;;;;;;9.87;5.23;;;;;;;-0.43;84.70;98773.13;5111167;28;20052;-77
2021/01/08 04:36:09;;;;;;;12.50;5.40;;;;;;;-0.40;84.81;98770.19;5110845;28;20039;-77
2021/01/08 04:38:36;;;;;;;12.60;5.27;;;;;;;-0.37;84.68;98767.28;5110821;28;20051;-77
2021/01/08 04:41:04;;;;;;;10.83;5.30;;;;;;;-0.46;85.37;98757.34;5111075;28;20036;-77
2021/01/08 04:43:31;;;;;;;10.20;5.90;;;;;;;-0.39;85.48;98764.72;5110179;28;20054;-77
2021/01/08 04:46:07;;;;;;;9.33;5.37;;;;;;;-0.39;85.37;98772.75;5110628;28;20039;-78
2021/01/08 04:48:35;;;;;;;9.07;4.73;;;;;;;-0.41;84.53;98763.97;5110768;28;20526;-77
2021/01/08 04:51:04;;;;;;;13.57;5.63;;;;;;;-0.48;84.65;98762.81;5110931;28;20514;-78
2021/01/08 04:53:31;;;;;;;11.67;5.33;;;;;;;-0.48;85.11;98756.59;5110574;28;20051;-77
2021/01/08 04:56:02;;;;;;;9.37;4.93;;;;;;;-0.47;84.70;98758.31;5110859;28;20047;-78
2021/01/08 04:58:32;;;;;;;10.17;5.33;;;;;;;-0.49;84.17;98760.25;5107619;28;20062;-77
2021/01/08 05:01:00;;;;;;;10.82;4.93;;;;;;;-0.51;85.06;98762.19;5111086;28;20051;-77
2021/01/08 05:03:27;;;;;;;8.97;4.43;;;;;;;-0.56;84.97;98765.25;5110606;28;20463;-77
2021/01/08 05:05:53;;;;;;;8.37;4.40;;;;;;;-0.55;85.39;98765.13;5110390;28;20051;-77
2021/01/08 05:08:19;;;;;;;10.63;5.23;;;;;;;-0.56;85.54;98770.56;5110472;28;20483;-77
2021/01/08 05:10:46;;;;;;;12.07;5.73;;;;;;;-0.60;85.59;98764.66;5113231;28;20169;-77
2021/01/08 05:13:12;;;;;;;8.87;5.40;;;;;;;-0.60;86.91;98770.00;5114705;28;20065;-77
2021/01/08 05:15:40;;;;;;;9.77;5.33;;;;;;;-0.60;86.16;98750.47;5114423;28;20044;-77
2021/01/08 05:18:07;;;;;;;10.40;5.50;;;;;;;-0.56;86.73;98766.09;5115161;28;20051;-77
2021/01/08 05:20:33;;;;;;;12.70;5.50;;;;;;;-0.66;87.05;98762.47;5113267;28;20503;-77
2021/01/08 05:23:00;;;;;;;10.60;5.50;;;;;;;-0.68;87.13;98768.91;5114759;28;20047;-78
2021/01/08 05:25:27;;;;;;;11.37;5.03;;;;;;;-0.73;87.31;98764.78;5114030;27;20209;-77
2021/01/08 05:27:54;;;;;;;10.50;6.13;;;;;;;-0.75;87.61;98761.38;5114857;28;20048;-77
2021/01/08 05:30:23;;;;;;;9.17;5.30;;;;;;;-0.79;88.51;98761.75;5114383;28;20503;-77
2021/01/08 05:32:57;;;;;;;8.40;5.03;;;;;;;-0.81;87.78;98766.34;5096521;28;20051;-78
2021/01/08 05:35:24;;;;;;;9.43;5.33;;;;;;;-0.77;87.88;98765.13;5114405;28;20052;-77
2021/01/08 05:37:53;;;;;;;11.03;5.40;;;;;;;-0.77;88.07;98751.78;5114075;28;20096;-77
2021/01/08 05:40:25;;;;;;;14.60;5.93;;;;;;;-0.62;87.94;98763.06;5114167;28;20073;-77
2021/01/08 05:42:55;;;;;;;13.27;5.93;;;;;;;-0.63;87.58;98761.34;5113928;28;20062;-77
2021/01/08 05:45:22;;;;;;;12.40;5.63;;;;;;;-0.72;87.91;98762.97;5113883;28;20435;-78
2021/01/08 05:47:50;;;;;;;9.10;5.57;;;;;;;-0.74;88.10;98762.22;5113776;28;20407;-77
2021/01/08 05:50:20;;;;;;;13.70;5.80;;;;;;;-0.69;87.66;98759.19;5114153;28;20047;-77
2021/01/08 05:52:51;;;;;;;15.27;5.53;;;;;;;-0.70;88.16;98754.84;5113791;28;20070;-78
2021/01/08 05:55:17;;;;;;;12.33;5.27;;;;;;;-0.74;87.38;98755.09;5113714;28;20430;-77
2021/01/08 05:57:43;;;;;;;13.37;5.63;;;;;;;-0.64;87.31;98765.03;5113938;28;20093;-77
2021/01/08 06:00:11;;;;;;;12.57;5.40;;;;;;;-0.75;87.66;98761.38;5113908;28;20043;-77
2021/01/08 06:02:38;;;;;;;10.33;5.60;;;;;;;-0.76;87.75;98761.50;5113962;28;20058;-77
2021/01/08 06:05:06;;;;;;;9.57;5.57;;;;;;;-0.79;87.66;98767.09;5113351;28;20069;-77
2021/01/08 06:07:38;;;;;;;11.40;5.77;;;;;;;-0.80;87.73;98766.25;5113388;28;20135;-77
2021/01/08 06:10:06;;;;;;;11.07;5.33;;;;;;;-0.97;88.36;98740.06;5103937;28;20048;-77
2021/01/08 06:12:38;;;;;;;9.93;5.43;;;;;;;-0.79;88.55;98769.75;5113621;28;20092;-78
2021/01/08 06:15:11;;;;;;;9.63;5.00;;;;;;;-0.80;88.34;98774.25;5112987;28;20507;-77
2021/01/08 06:17:38;;;;;;;11.80;6.00;;;;;;;-0.77;88.45;98774.03;5114047;28;20043;-77
2021/01/08 06:20:06;;;;;;;13.00;6.20;;;;;;;-0.74;88.29;98770.22;5112995;28;20524;-77
2021/01/08 06:22:38;;;;;;;11.77;6.80;;;;;;;-0.73;87.97;98771.94;5112050;28;20077;-78
2021/01/08 06:25:06;;;;;;;10.40;5.70;;;;;;;-0.78;87.63;98761.63;5112866;28;20040;-79
2021/01/08 06:27:34;;;;;;;11.93;4.70;;;;;;;-0.66;87.46;98773.16;5113221;28;20042;-79
2021/01/08 06:30:04;;;;;;;10.43;5.60;;;;;;;-0.74;87.40;98751.53;5096231;28;20051;-79
2021/01/08 06:32:31;;;;;;;10.32;4.95;;;;;;;-0.66;87.99;98759.81;5114593;28;20054;-79
2021/01/08 06:35:05;;;;;;;11.83;6.03;;;;;;;-0.69;87.82;98768.06;5113969;28;20043;-79
2021/01/08 06:37:38;;;;;;;8.90;4.90;;;;;;;-0.80;87.91;98754.72;5113006;28;20060;-79
2021/01/08 06:40:06;;;;;;;13.53;5.57;;;;;;;-0.76;87.87;98757.00;5114010;28;20126;-79
2021/01/08 06:42:39;;;;;;;9.87;5.03;;;;;;;-0.57;87.78;98785.75;5113129;28;20093;-79
2021/01/08 06:45:11;;;;;;;9.63;5.03;;;;;;;-0.59;87.11;98781.50;5100322;28;20047;-79
2021/01/08 06:47:43;;;;;;;10.73;5.50;;;;;;;-0.66;87.16;98758.94;5113139;28;20059;-79
2021/01/08 06:50:16;;;;;;;13.97;6.03;;;;;;;-0.66;87.50;98766.94;5113492;28;20048;-79
2021/01/08 06:52:46;;;;;;;12.77;5.80;;;;;;;-0.65;87.57;98774.00;5113424;28;20438;-79
2021/01/08 06:55:18;;;;;;;9.80;5.23;;;;;;;-0.54;87.70;98779.34;5112532;28;20043;-80
2021/01/08 06:57:55;;;;;;;7.83;4.83;;;;;;;-0.69;87.40;98765.41;5106589;28;20059;-79
2021/01/08 07:00:26;;;;;;;12.00;4.90;;;;;;;-0.58;87.69;98786.72;5112698;28;20559;-79
2021/01/08 07:02:59;;;;;;;8.70;5.07;;;;;;;-0.58;87.92;98785.88;5111043;28;20511;-79
2021/01/08 07:05:25;;;;;;;9.63;5.17;;;;;;;-0.63;87.78;98780.91;5112500;28;20445;-80
2021/01/08 07:07:55;;;;;;;9.33;4.83;;;;;;;-0.65;88.19;98777.50;5112767;28;20048;-80
2021/01/08 07:10:21;;;;;;;11.25;4.63;;;;;;;-0.51;87.32;98803.13;5112460;28;20090;-81
2021/01/08 07:12:53;;;;;;;10.63;5.07;;;;;;;-0.64;87.62;98781.03;5112542;28;20055;-79
2021/01/08 07:15:20;;;;;;;8.70;5.33;;;;;;;-0.62;87.46;98784.44;5112032;28;20044;-79
2021/01/08 07:17:52;;;;;;;12.50;5.50;;;;;;;-0.57;87.25;98796.44;5094534;28;20043;-80
2021/01/08 07:20:20;;;;;;;10.53;5.60;;;;;;;-0.58;87.38;98799.22;5112053;28;20042;-79
2021/01/08 07:22:52;;;;;;;12.50;5.00;;;;;;;-0.56;86.78;98794.59;5112016;28;20488;-79
2021/01/08 07:25:24;;;;;;;11.27;5.07;;;;;;;-0.50;86.92;98809.28;5112115;28;20051;-79
2021/01/08 07:27:52;;;;;;;10.93;5.93;;;;;;;-0.59;86.88;98789.50;5098348;28;20130;-79
2021/01/08 07:30:20;;;;;;;9.63;5.43;;;;;;;-0.64;86.89;98781.88;5111837;28;20050;-79
2021/01/08 07:32:48;;;;;;;10.43;5.37;;;;;;;-0.64;87.68;98791.72;5111681;28;20062;-79
2021/01/08 07:35:25;;;;;;;14.57;6.13;;;;;;;-0.62;87.72;98803.13;5111697;28;20044;-79
2021/01/08 07:38:05;;;;;;;12.47;5.37;;;;;;;-0.63;87.81;98798.72;5111860;28;20051;-78
2021/01/08 07:40:33;;;;;;;8.60;5.00;;;;;;;-0.73;88.48;98793.28;5112503;28;20073;-79
2021/01/08 07:43:01;;;;;;;11.50;5.00;;;;;;;-0.76;87.87;98796.22;5110840;28;20051;-80
2021/01/08 07:45:50;;;;;;;9.90;4.97;;;;;;;-0.61;88.20;98821.69;5111408;28;20044;-79
2021/01/08 07:48:18;;;;;;;8.37;5.30;;;;;;;-0.67;88.40;98827.50;5109019;28;20476;-80
2021/01/08 07:50:52;;;;;;;8.53;4.13;;;;;;;-0.66;88.77;98823.88;5111572;28;20044;-79
2021/01/08 07:53:52;;;;;;;8.33;4.57;;;;;;;-0.51;88.97;98831.63;5109279;28;20050;-79
2021/01/08 07:56:20;;;;;;;8.50;4.50;;;;;;;-0.67;88.62;98808.81;5110570;28;20488;-79
2021/01/08 07:58:56;;;;;;;9.07;4.37;;;;;;;-0.65;88.29;98803.34;5111463;28;20055;-79
2021/01/08 08:01:22;;;;;;;13.00;7.47;;;;;;;-0.48;88.02;98832.25;5111729;28;20220;-79
2021/01/08 08:03:58;;;;;;;7.37;4.53;;;;;;;-0.58;88.11;98828.59;5111769;28;20051;-80
2021/01/08 08:06:27;;;;;;;7.40;4.73;;;;;;;-0.44;88.28;98847.03;5111143;28;20418;-79
2021/01/08 08:08:57;;;;;;;9.47;5.40;;;;;;;-0.52;88.09;98830.78;5111853;28;20044;-80
2021/01/08 08:11:27;;;;;;;6.00;3.57;;;;;;;-0.45;87.42;98833.81;5110924;28;20507;-80
2021/01/08 08:13:54;;;;;;;7.00;4.17;;;;;;;-0.52;87.73;98829.94;5111452;28;20039;-79
2021/01/08 08:16:30;;;;;;;9.20;5.03;;;;;;;-0.37;88.41;98847.41;5110461;28;20411;-79
2021/01/08 08:18:58;;;;;;;7.73;5.03;;;;;;;-0.40;88.07;98855.66;5111435;28;20047;-80
2021/01/08 08:21:24;;;;;;;7.37;4.23;;;;;;;-0.51;87.46;98836.97;5110788;28;20476;-80
2021/01/08 08:23:56;;;;;;;6.83;4.30;;;;;;;-0.46;87.86;98842.81;5110650;28;20082;-80
2021/01/08 08:26:23;;;;;;;8.43;4.00;;;;;;;-0.46;87.71;98848.16;5110921;28;20517;-80
2021/01/08 08:29:00;;;;;;;6.47;3.80;;;;;;;-0.46;88.08;98858.81;5110780;28;20495;-79
2021/01/08 08:31:29;;;;;;;7.27;4.57;;;;;;;-0.47;87.82;98865.13;5111402;28;20058;-80
2021/01/08 08:33:57;;;;;;;9.10;4.32;;;;;;;-0.49;88.09;98849.22;5110952;28;20048;-80
2021/01/08 08:36:26;;;;;;;6.00;4.23;;;;;;;-0.39;87.95;98870.72;5110908;28;20056;-79
2021/01/08 08:38:57;;;;;;;8.90;4.40;;;;;;;-0.42;87.91;98858.47;5111063;28;20066;-80
2021/01/08 08:41:24;;;;;;;9.83;5.10;;;;;;;-0.35;87.49;98874.81;5111112;28;20063;-80
2021/01/08 08:44:02;;;;;;;7.17;4.97;;;;;;;-0.52;88.26;98862.84;5110467;28;20039;-79
2021/01/08 08:46:52;;;;;;;8.10;4.90;;;;;;;-0.56;88.69;98869.38;5111440;28;20108;-79
2021/01/08 08:49:19;;;;;;;10.23;4.95;;;;;;;-0.58;88.76;98871.31;5111287;28;20040;-79
2021/01/08 08:51:48;;;;;;;8.53;4.93;;;;;;;-0.49;88.66;98883.09;5112109;28;20044;-79
2021/01/08 08:54:17;;;;;;;10.33;4.97;;;;;;;-0.55;89.31;98876.44;5109550;28;20075;-79
2021/01/08 08:56:49;;;;;;;8.57;5.07;;;;;;;-0.52;88.93;98880.69;5111572;28;20071;-78
2021/01/08 08:59:16;;;;;;;9.10;4.90;;;;;;;-0.54;89.09;98886.16;5111421;28;20039;-78
2021/01/08 09:01:44;;;;;;;14.53;6.13;;;;;;;-0.46;89.25;98890.88;5110818;28;20514;-78
2021/01/08 09:04:10;;;;;;;7.40;4.60;;;;;;;-0.61;89.55;98867.06;5110994;28;20071;-78
2021/01/08 09:06:40;;;;;;;12.27;6.47;;;;;;;-0.49;89.90;98896.47;5110946;28;20120;-78
2021/01/08 09:09:24;;;;;;;13.63;6.40;;;;;;;-0.69;89.38;98863.31;5104421;28;20454;-78
2021/01/08 09:12:08;;;;;;;10.33;5.53;;;;;;;-0.76;89.48;98861.13;5111290;28;20055;-78
2021/01/08 09:14:39;;;;;;;12.30;5.40;;;;;;;-0.68;89.05;98873.84;5110159;28;20495;-78
2021/01/08 09:17:10;;;;;;;10.07;5.80;;;;;;;-0.58;89.53;98890.03;5111304;28;20507;-78
2021/01/08 09:19:45;;;;;;;14.47;6.63;;;;;;;-0.62;89.31;98885.88;5110727;28;20036;-78
2021/01/08 09:22:12;;;;;;;11.50;5.97;;;;;;;-0.63;89.26;98879.72;5111762;28;20522;-78
2021/01/08 09:24:42;;;;;;;13.60;6.87;;;;;;;-0.47;89.26;98897.19;5110661;28;20453;-78
2021/01/08 09:27:11;;;;;;;11.27;7.07;;;;;;;-0.62;88.96;98878.72;5112430;28;20040;-78
2021/01/08 09:29:39;;;;;;;10.67;6.43;;;;;;;-0.55;88.81;98879.09;5112751;28;20063;-78
2021/01/08 09:32:07;;;;;;;14.70;6.90;;;;;;;-0.56;89.54;98886.28;5113110;28;20051;-78
2021/01/08 09:34:35;;;;;;;16.70;7.70;;;;;;;-0.40;89.24;98899.25;5112818;28;20491;-78
2021/01/08 09:37:16;;;;;;;12.90;6.40;;;;;;;-0.43;88.27;98894.13;5112854;28;20054;-78
2021/01/08 09:39:45;;;;;;;11.13;6.63;;;;;;;-0.56;87.85;98878.25;5113258;28;20055;-78
2021/01/08 09:42:12;;;;;;;14.73;6.63;;;;;;;-0.46;87.28;98877.53;5113153;28;20063;-78
2021/01/08 09:44:40;;;;;;;14.57;6.67;;;;;;;-0.45;87.51;98888.09;5111977;28;20048;-78
2021/01/08 09:47:08;;;;;;;16.23;7.17;;;;;;;-0.51;87.87;98877.03;5111851;28;20051;-78
2021/01/08 09:49:43;;;;;;;11.87;5.60;;;;;;;-0.44;86.73;98894.25;5109923;28;20625;-78
2021/01/08 09:52:10;;;;;;;9.13;5.63;;;;;;;-0.44;87.86;98883.59;5115290;28;20069;-78
2021/01/08 09:54:45;;;;;;;10.77;6.00;;;;;;;-0.33;86.66;98902.28;5110308;28;20052;-78
2021/01/08 09:57:24;;;;;;;15.03;5.77;;;;;;;-0.38;87.37;98908.00;5103877;28;20047;-79
2021/01/08 09:59:57;;;;;;;12.73;6.20;;;;;;;-0.30;86.61;98914.53;5114777;28;20083;-79
2021/01/08 10:02:35;;;;;;;10.37;6.20;;;;;;;-0.48;87.48;98895.47;5112333;28;20057;-78
2021/01/08 10:05:01;;;;;;;8.93;5.70;;;;;;;-0.45;87.69;98903.25;5113949;28;20060;-78
2021/01/08 10:07:41;;;;;;;12.57;6.73;;;;;;;-0.47;88.09;98903.34;5112534;28;20404;-78
2021/01/08 10:10:10;;;;;;;16.05;7.00;;;;;;;-0.50;87.86;98892.91;5114762;28;20052;-78
2021/01/08 10:12:47;;;;;;;13.80;6.82;;;;;;;-0.43;88.05;98907.50;5114379;28;20085;-79
2021/01/08 10:15:15;;;;;;;12.73;7.20;;;;;;;-0.53;88.31;98895.84;5113681;28;20404;-78
2021/01/08 10:17:45;;;;;;;12.47;6.70;;;;;;;-0.57;88.17;98892.56;5113968;28;20049;-78
2021/01/08 10:20:15;;;;;;;22.07;7.57;;;;;;;-0.44;88.62;98902.28;5113682;28;20051;-80
2021/01/08 10:22:51;;;;;;;9.18;5.38;;;;;;;-0.35;88.60;98920.25;5104021;28;20056;-79
2021/01/08 10:25:26;;;;;;;12.33;7.03;;;;;;;-0.36;88.32;98915.88;5098538;28;20368;-79
2021/01/08 10:27:53;;;;;;;10.53;6.27;;;;;;;-0.26;88.67;98927.53;5105535;28;20044;-79
2021/01/08 10:30:20;;;;;;;11.20;5.90;;;;;;;-0.28;88.94;98925.97;5093720;28;20052;-79
2021/01/08 10:32:47;;;;;;;13.73;6.97;;;;;;;-0.27;88.60;98919.63;5108006;28;20047;-79
2021/01/08 10:35:18;;;;;;;11.43;6.00;;;;;;;-0.35;88.54;98914.91;5113768;28;20043;-79
2021/01/08 10:37:46;;;;;;;11.37;6.43;;;;;;;-0.44;88.66;98895.09;5113857;28;20460;-79
2021/01/08 10:40:13;;;;;;;13.00;5.90;;;;;;;-0.30;88.08;98919.88;5113818;28;20083;-79
2021/01/08 10:42:41;;;;;;;12.43;5.17;;;;;;;-0.57;87.67;98903.25;5113728;28;20054;-79
2021/01/08 10:45:08;;;;;;;13.63;6.33;;;;;;;-0.51;87.26;98887.69;5113374;28;20605;-79
2021/01/08 10:47:34;;;;;;;12.07;6.20;;;;;;;-0.30;87.39;98917.19;5113998;28;20051;-78
2021/01/08 10:50:01;;;;;;;13.63;6.47;;;;;;;-0.39;87.56;98919.66;5113821;28;20055;-78
2021/01/08 10:52:27;;;;;;;10.77;5.60;;;;;;;-0.46;87.18;98906.91;5113127;28;20044;-78
2021/01/08 10:54:54;;;;;;;15.43;7.17;;;;;;;-0.39;87.56;98908.13;5112770;28;20056;-79
2021/01/08 10:57:22;;;;;;;12.03;7.23;;;;;;;-0.43;87.27;98918.19;5113219;28;20040;-79
2021/01/08 10:59:49;;;;;;;13.70;6.63;;;;;;;-0.44;87.43;98913.78;5113581;28;20047;-79
2021/01/08 11:02:16;;;;;;;10.53;6.10;;;;;;;-0.39;87.13;98921.47;5112883;28;20047;-79
2021/01/08 11:04:42;;;;;;;16.57;7.17;;;;;;;-0.45;87.09;98908.56;5112626;28;20513;-79
2021/01/08 11:07:08;;;;;;;15.47;7.00;;;;;;;-0.36;87.39;98919.41;5111414;28;20050;-79
2021/01/08 11:09:35;;;;;;;13.50;6.03;;;;;;;-0.38;88.03;98916.00;5114060;28;20044;-78
2021/01/08 11:12:01;;;;;;;14.13;6.83;;;;;;;-0.39;87.54;98906.28;5115209;28;20066;-78
2021/01/08 11:14:27;;;;;;;13.77;7.10;;;;;;;-0.32;87.61;98909.31;5114246;28;20476;-79
2021/01/08 11:16:55;;;;;;;14.63;7.47;;;;;;;-0.49;87.81;98883.94;5114418;28;20110;-78
2021/01/08 11:19:21;;;;;;;12.33;6.83;;;;;;;-0.37;88.04;98898.16;5114592;28;20063;-78
2021/01/08 11:21:51;;;;;;;12.50;6.60;;;;;;;-0.41;88.00;98900.19;5114395;28;20059;-78
2021/01/08 11:24:18;;;;;;;17.73;8.67;;;;;;;-0.50;87.32;98884.91;5114519;28;20047;-78
2021/01/08 11:26:44;;;;;;;14.73;7.93;;;;;;;-0.30;87.43;98896.69;5113858;28;20055;-78
2021/01/08 11:29:13;;;;;;;10.73;6.03;;;;;;;-0.30;86.93;98901.19;5114026;28;20044;-79
2021/01/08 11:31:41;;;;;;;15.43;6.78;;;;;;;-0.36;87.85;98895.34;5093035;28;20514;-82
2021/01/08 11:34:10;;;;;;;11.80;6.10;;;;;;;-0.27;87.81;98899.13;5110081;28;20097;-79